KSAR/SAR METAR and TAF weather

Enter ICAO airport designator
Station Type Date Time Source
KSAR METAR 2020/07/12 03:55 UTC NOAA

KSAR 120355Z AUTO 20005KT 10SM CLR 29/22 A2984 RMK AO2 T02850222 403450215


Station Type Date Time Source
KSAR Decoded METAR 2020/07/12 03:55 UTC NOAA

Sparta, Sparta Community-Hunter Field Airport, IL, United States (KSAR) 38-08-56N 089-41-55W
Jul 11, 2020 - 11:55 PM EDT / 2020.07.12 0355 UTC
Wind: from the SSW (200 degrees) at 6 MPH (5 KT):0
Visibility: 10 mile(s):0
Sky conditions: clear
Temperature: 83.3 F (28.5 C)
Dew Point: 72.0 F (22.2 C)
Relative Humidity: 68%
Pressure (altimeter): 29.84 in. Hg (1010 hPa)
ob: KSAR 120355Z AUTO 20005KT 10SM CLR 29/22 A2984 RMK AO2 T02850222 403450215
cycle: 4

Station Type Date Time Source
KSAR TAF UTC NOAA

Error!

Example: see airport list